Skip Navigation LinksHome page > Weather > Current weather Skip Navigation Links

Current Weather

Ndjamena, Chad

For information only: do not use for flight planning or navigation.
Latest weather
Observation time Saturday, February 6, 2016 11:00 AM WAT
Local time Saturday, February 6, 2016 12:14 PM WAT
Flight conditions Instrument Meteorological Conditions
Winds
Wind direction Northeast (50°)
Wind speed 18 mph
Visibility 1.6 mi.
Present weather BLDU
Sky condition
Ceiling unlimited
Temperature 82°F
Dewpoint 27°F
Altimeter 30.00 in.Hg
Derived measurements
Relative humidity 13%
Heat index 82°F
Density altitude 1782 ft.
Remarks
No significant changes expected in the next two hours.
METAR FTTJ 061000Z 05016KT 2500 BLDU NSC 28/M03 Q1016 NOSIG

Settings

Location code

InnerDrive.Weather 4.0.5722.1 Release CLR 4.0.30319.34209
Copyright ©2015 Inner Drive Technology. All rights reserved. Portions Copyright ©1986-2015 David Braverman.

Find weather

Site navigation


Skip Navigation Links

Place info

Page info

PayPal - The safer, easier way to pay online!

Return home.

Copyright ©2016 Inner Drive Technology. Purveyors of fine, hand-crafted computer software. Page printed 2016-02-06T11:14:54 UTC.